createdAt,value
2018-12-22T00:01:07.773Z,12.00
2018-12-22T00:05:11.894Z,12.00
2018-12-22T00:13:35.973Z,12.00
2018-12-22T00:17:40.089Z,11.90
2018-12-22T00:21:44.213Z,11.90
2018-12-22T00:25:48.281Z,11.90
2018-12-22T00:29:52.365Z,12.00
2018-12-22T00:33:56.594Z,12.00
2018-12-22T00:38:00.693Z,12.00
2018-12-22T00:42:04.786Z,11.90
2018-12-22T00:46:09.006Z,12.00
2018-12-22T00:50:13.146Z,12.10
2018-12-22T00:54:18.139Z,12.10
2018-12-22T00:58:30.534Z,12.10
2018-12-22T01:02:28.589Z,12.10
2018-12-22T01:06:32.653Z,12.10
2018-12-22T01:10:36.764Z,12.10
2018-12-22T01:14:40.884Z,12.10
2018-12-22T01:18:45.081Z,12.10
2018-12-22T01:22:49.199Z,12.10
2018-12-22T01:26:53.369Z,12.00
2018-12-22T01:30:57.459Z,12.10
2018-12-22T01:35:01.564Z,12.00
2018-12-22T01:39:06.757Z,12.00
2018-12-22T01:43:11.721Z,12.10
2018-12-22T01:47:15.768Z,12.10
2018-12-22T01:51:19.869Z,12.10
2018-12-22T01:55:24.021Z,12.20
2018-12-22T01:59:28.179Z,12.20
2018-12-22T02:03:32.309Z,12.20
2018-12-22T02:07:36.389Z,12.20
2018-12-22T02:11:40.472Z,12.20
2018-12-22T02:15:44.602Z,12.30
2018-12-22T02:19:48.746Z,12.30
2018-12-22T02:23:52.836Z,12.30
2018-12-22T02:27:56.915Z,12.20
2018-12-22T02:32:01.011Z,12.20
2018-12-22T02:36:05.171Z,12.20
2018-12-22T02:40:09.636Z,12.20
2018-12-22T02:44:13.800Z,12.30
2018-12-22T02:48:17.919Z,12.30
2018-12-22T02:52:22.013Z,12.30
2018-12-22T02:56:26.199Z,12.20
2018-12-22T03:00:30.272Z,12.10
2018-12-22T03:04:34.431Z,12.10
2018-12-22T03:08:38.521Z,12.30
2018-12-22T03:12:42.677Z,12.50
2018-12-22T03:16:47.321Z,12.60
2018-12-22T03:20:51.415Z,12.60
2018-12-22T03:24:55.503Z,12.40
2018-12-22T03:28:59.630Z,12.40
2018-12-22T03:33:03.719Z,12.50
2018-12-22T03:37:07.906Z,12.60
2018-12-22T03:41:11.998Z,12.60
2018-12-22T03:45:16.131Z,12.40
2018-12-22T03:49:20.193Z,12.50
2018-12-22T03:53:24.301Z,12.40
2018-12-22T03:57:28.394Z,12.40
2018-12-22T04:01:32.480Z,12.40
2018-12-22T04:05:36.571Z,12.30
2018-12-22T04:09:40.661Z,12.30
2018-12-22T04:13:44.757Z,12.30
2018-12-22T04:17:48.913Z,12.40
2018-12-22T04:21:53.615Z,12.30
2018-12-22T04:25:57.698Z,12.40
2018-12-22T04:30:01.851Z,12.50
2018-12-22T04:34:05.942Z,12.50
2018-12-22T04:38:10.095Z,12.50
2018-12-22T04:42:14.192Z,12.40
2018-12-22T04:46:18.285Z,12.20
2018-12-22T04:50:22.381Z,12.30
2018-12-22T04:54:26.457Z,12.20
2018-12-22T04:58:30.545Z,12.30
2018-12-22T05:02:34.638Z,12.20
2018-12-22T05:06:38.724Z,12.20
2018-12-22T05:10:42.808Z,12.20
2018-12-22T05:14:46.893Z,12.20
2018-12-22T05:18:50.978Z,12.20
2018-12-22T05:22:55.106Z,12.20
2018-12-22T05:26:59.197Z,12.20
2018-12-22T05:31:03.336Z,12.20
2018-12-22T05:35:07.579Z,12.20
2018-12-22T05:39:11.686Z,12.20
2018-12-22T05:43:15.810Z,12.30
2018-12-22T05:47:19.934Z,12.30
2018-12-22T05:51:24.014Z,12.30
2018-12-22T05:55:28.137Z,12.30
2018-12-22T05:59:32.218Z,12.30
2018-12-22T06:03:36.330Z,12.30
2018-12-22T06:07:40.437Z,12.30
2018-12-22T06:11:44.534Z,12.30
2018-12-22T06:15:48.724Z,12.20
2018-12-22T06:19:52.885Z,12.30
2018-12-22T06:23:56.999Z,12.30
2018-12-22T06:28:01.081Z,12.20
2018-12-22T06:32:05.263Z,12.20
2018-12-22T06:36:10.561Z,12.10
2018-12-22T06:40:14.650Z,12.10
2018-12-22T06:44:18.760Z,12.10
2018-12-22T06:48:22.896Z,12.10
2018-12-22T06:52:26.990Z,12.00
2018-12-22T06:56:31.146Z,12.00
2018-12-22T07:00:35.261Z,12.00
2018-12-22T07:04:39.333Z,12.10
2018-12-22T07:08:43.425Z,12.10
2018-12-22T07:12:47.517Z,12.10
2018-12-22T07:16:51.642Z,12.10
2018-12-22T07:20:55.871Z,12.10
2018-12-22T07:25:00.034Z,12.20
2018-12-22T07:29:04.330Z,12.20
2018-12-22T07:33:08.417Z,12.20
2018-12-22T07:37:12.503Z,12.10
2018-12-22T07:41:16.610Z,12.00
2018-12-22T07:45:20.703Z,11.90
2018-12-22T07:49:24.806Z,11.70
2018-12-22T07:53:28.919Z,11.50
2018-12-22T07:57:32.990Z,11.50
2018-12-22T08:01:37.107Z,11.50
2018-12-22T08:05:41.213Z,11.70
2018-12-22T08:09:45.302Z,11.80
2018-12-22T08:13:49.434Z,11.80
2018-12-22T08:17:53.518Z,11.90
2018-12-22T08:21:57.741Z,12.10
2018-12-22T08:26:01.855Z,12.00
2018-12-22T08:30:08.844Z,12.10
2018-12-22T08:34:12.936Z,12.20
2018-12-22T08:38:17.010Z,12.20
2018-12-22T08:42:21.246Z,12.10
2018-12-22T08:46:25.513Z,12.20
2018-12-22T08:50:32.550Z,12.00
2018-12-22T08:54:36.637Z,11.90
2018-12-22T08:58:40.733Z,11.90
2018-12-22T09:02:44.874Z,11.80
2018-12-22T09:06:48.965Z,11.90
2018-12-22T09:10:53.058Z,12.00
2018-12-22T09:14:57.211Z,12.20
2018-12-22T09:19:01.325Z,11.90
2018-12-22T09:23:05.438Z,11.90
2018-12-22T09:27:09.661Z,11.80
2018-12-22T09:31:13.740Z,11.80
2018-12-22T09:35:17.837Z,12.00
2018-12-22T09:39:21.893Z,11.90
2018-12-22T09:43:25.996Z,11.80
2018-12-22T09:47:30.223Z,11.60
2018-12-22T09:51:34.278Z,11.60
2018-12-22T09:55:39.353Z,11.40
2018-12-22T09:59:43.444Z,11.40
2018-12-22T10:03:47.530Z,11.40
2018-12-22T10:07:51.626Z,11.40
2018-12-22T10:11:55.775Z,11.40
2018-12-22T10:15:59.882Z,11.50
2018-12-22T10:20:07.164Z,11.80
2018-12-22T10:24:11.236Z,12.20
2018-12-22T10:28:15.338Z,12.30
2018-12-22T10:32:19.480Z,12.20
2018-12-22T10:36:23.590Z,12.40
2018-12-22T10:40:27.685Z,12.70
2018-12-22T10:44:31.750Z,12.50
2018-12-22T10:48:35.841Z,12.50
2018-12-22T10:52:39.923Z,12.80
2018-12-22T10:56:44.072Z,12.90
2018-12-22T11:00:48.157Z,13.30
2018-12-22T11:04:52.224Z,13.70
2018-12-22T11:08:56.317Z,13.60
2018-12-22T11:13:00.405Z,13.30
2018-12-22T11:17:04.557Z,13.00
2018-12-22T11:21:08.712Z,12.90
2018-12-22T11:25:15.191Z,13.10
2018-12-22T11:29:19.798Z,13.30
2018-12-22T11:33:23.885Z,13.30
2018-12-22T11:37:27.984Z,12.90
2018-12-22T11:41:32.070Z,12.50
2018-12-22T11:45:36.159Z,12.40
2018-12-22T11:49:40.592Z,12.40
2018-12-22T11:53:44.679Z,12.50
2018-12-22T11:57:48.756Z,12.10
2018-12-22T12:01:52.833Z,12.00
2018-12-22T12:05:56.912Z,11.80
2018-12-22T12:10:01.001Z,11.80
2018-12-22T12:14:05.162Z,11.70
2018-12-22T12:22:49.070Z,11.60
2018-12-22T12:35:46.892Z,11.30
2018-12-22T12:39:50.977Z,14.00
2018-12-22T12:43:55.095Z,15.50
2018-12-22T12:47:59.190Z,14.90
2018-12-22T12:52:03.279Z,13.60
2018-12-22T12:56:07.523Z,13.00
2018-12-22T13:00:19.165Z,13.00
2018-12-22T13:04:23.352Z,13.20
2018-12-22T13:08:27.424Z,13.30
2018-12-22T13:12:51.349Z,13.50
2018-12-22T13:16:55.457Z,13.50
2018-12-22T13:25:49.062Z,13.60
2018-12-22T13:29:53.131Z,13.80
2018-12-22T13:33:57.250Z,13.50
2018-12-22T13:42:48.778Z,12.90
2018-12-22T13:46:52.928Z,12.80
2018-12-22T13:50:57.136Z,12.80
2018-12-22T13:55:01.263Z,12.70
2018-12-22T14:03:49.286Z,12.80
2018-12-22T14:07:53.394Z,12.90
2018-12-22T14:11:57.519Z,12.60
2018-12-22T14:16:01.896Z,12.40
2018-12-22T14:24:49.091Z,12.40
2018-12-22T14:28:53.209Z,12.40
2018-12-22T14:32:57.287Z,12.30
2018-12-22T14:37:01.389Z,12.20
2018-12-22T14:45:49.278Z,12.30
2018-12-22T14:49:53.382Z,12.00
2018-12-22T14:53:57.462Z,11.70
2018-12-22T14:58:02.880Z,11.60
2018-12-22T15:02:06.976Z,11.30
2018-12-22T15:06:11.065Z,11.20
2018-12-22T15:10:15.229Z,11.20
2018-12-22T15:14:19.318Z,11.20
2018-12-22T15:18:23.414Z,11.20
2018-12-22T15:22:27.507Z,11.20
2018-12-22T15:26:31.602Z,11.10
2018-12-22T15:30:35.673Z,11.20
2018-12-22T15:34:39.763Z,11.30
2018-12-22T15:38:43.858Z,11.30
2018-12-22T15:42:48.937Z,11.50
2018-12-22T15:46:53.095Z,11.70
2018-12-22T15:50:57.215Z,11.80
2018-12-22T15:55:01.310Z,11.80
2018-12-22T15:59:05.399Z,11.80
2018-12-22T16:03:09.498Z,12.00
2018-12-22T16:07:13.598Z,12.10
2018-12-22T16:11:17.698Z,12.10
2018-12-22T16:15:25.341Z,12.10
2018-12-22T16:19:29.430Z,12.20
2018-12-22T16:23:48.190Z,12.10
2018-12-22T16:28:16.089Z,12.20
2018-12-22T16:32:20.226Z,12.20
2018-12-22T16:36:24.328Z,12.20
2018-12-22T16:40:28.760Z,12.20
2018-12-22T16:44:32.860Z,12.30
2018-12-22T16:48:37.110Z,12.20
2018-12-22T16:52:41.238Z,12.20
2018-12-22T16:56:45.402Z,12.20
2018-12-22T17:05:37.334Z,11.90
2018-12-22T17:09:41.438Z,11.90
2018-12-22T17:13:45.902Z,11.90
2018-12-22T17:17:50.028Z,11.90
2018-12-22T17:21:54.106Z,11.70
2018-12-22T17:26:00.217Z,11.70
2018-12-22T17:30:07.285Z,11.70
2018-12-22T17:34:11.508Z,11.70
2018-12-22T17:38:15.614Z,11.70
2018-12-22T17:42:20.781Z,11.70
2018-12-22T17:46:25.064Z,11.70
2018-12-22T17:50:29.147Z,11.60
2018-12-22T17:54:33.245Z,11.50
2018-12-22T17:58:37.585Z,11.80
2018-12-22T18:02:46.394Z,11.80
2018-12-22T18:06:50.486Z,11.80
2018-12-22T18:10:54.570Z,11.80
2018-12-22T18:14:58.775Z,11.90
2018-12-22T18:19:02.898Z,12.00
2018-12-22T18:23:07.023Z,12.00
2018-12-22T18:27:11.144Z,11.90
2018-12-22T18:31:15.291Z,11.90
2018-12-22T18:35:19.390Z,11.80
2018-12-22T18:39:23.481Z,11.70
2018-12-22T18:43:27.637Z,11.60
2018-12-22T18:47:31.705Z,11.50
2018-12-22T18:51:35.806Z,11.50
2018-12-22T18:55:39.902Z,11.60
2018-12-22T18:59:44.021Z,11.60
2018-12-22T19:03:48.103Z,11.70
2018-12-22T19:07:52.375Z,11.70
2018-12-22T19:11:56.484Z,11.70
2018-12-22T19:16:00.570Z,11.70
2018-12-22T19:20:16.354Z,11.60
2018-12-22T19:24:20.449Z,11.60
2018-12-22T19:28:24.863Z,11.60
2018-12-22T19:32:28.975Z,11.70
2018-12-22T19:36:33.099Z,11.80
2018-12-22T19:40:37.225Z,11.80
2018-12-22T19:44:41.324Z,11.90
2018-12-22T19:48:45.426Z,12.00
2018-12-22T19:52:49.522Z,11.70
2018-12-22T19:56:53.600Z,11.70
2018-12-22T20:00:58.011Z,11.40
2018-12-22T20:05:02.107Z,11.30
2018-12-22T20:09:06.325Z,11.20
2018-12-22T20:13:10.432Z,11.40
2018-12-22T20:17:14.509Z,11.60
2018-12-22T20:21:18.597Z,11.60
2018-12-22T20:25:22.695Z,11.50
2018-12-22T20:29:26.784Z,11.40
2018-12-22T20:33:30.867Z,11.40
2018-12-22T20:37:34.941Z,11.40
2018-12-22T20:41:39.083Z,11.40
2018-12-22T20:45:43.228Z,11.40
2018-12-22T20:49:47.319Z,11.60
2018-12-22T20:53:52.308Z,11.70
2018-12-22T20:57:56.403Z,11.80
2018-12-22T21:02:00.509Z,11.60
2018-12-22T21:06:04.873Z,11.50
2018-12-22T21:10:09.054Z,11.60
2018-12-22T21:14:13.121Z,11.50
2018-12-22T21:18:17.234Z,11.60
2018-12-22T21:22:21.350Z,11.50
2018-12-22T21:26:25.432Z,11.40
2018-12-22T21:30:29.560Z,11.20
2018-12-22T21:34:34.006Z,11.20
2018-12-22T21:38:38.931Z,11.40
2018-12-22T21:42:43.023Z,11.50
2018-12-22T21:46:47.276Z,11.60
2018-12-22T21:50:51.336Z,11.60
2018-12-22T21:54:55.424Z,11.60
2018-12-22T21:58:59.514Z,11.50
2018-12-22T22:03:03.620Z,11.50
2018-12-22T22:07:07.699Z,11.60
2018-12-22T22:11:11.790Z,11.70
2018-12-22T22:15:15.902Z,11.60
2018-12-22T22:19:20.057Z,11.50
2018-12-22T22:23:48.030Z,11.50
2018-12-22T22:27:52.113Z,11.50
2018-12-22T22:31:56.328Z,11.50
2018-12-22T22:36:00.404Z,11.30
2018-12-22T22:40:05.733Z,11.20
2018-12-22T22:44:11.455Z,11.30
2018-12-22T22:48:15.592Z,11.30
2018-12-22T22:52:47.161Z,11.30
2018-12-22T22:56:51.279Z,11.30
2018-12-22T23:00:55.366Z,11.30
2018-12-22T23:04:59.475Z,11.50
2018-12-22T23:09:05.096Z,11.40
2018-12-22T23:13:09.281Z,11.30
2018-12-22T23:17:13.363Z,11.10
2018-12-22T23:21:17.454Z,11.00
2018-12-22T23:25:21.553Z,11.00
2018-12-22T23:29:25.650Z,11.00
2018-12-22T23:33:29.734Z,11.10
2018-12-22T23:37:33.832Z,11.20
2018-12-22T23:41:48.681Z,11.10
2018-12-22T23:45:52.805Z,11.30
2018-12-22T23:49:56.977Z,11.20
2018-12-22T23:54:01.082Z,11.20
2018-12-22T23:58:05.177Z,11.40
